sensor_id;sensor_type;location;lat;lon;timestamp;P1;durP1;ratioP1;P2;durP2;ratioP2
11777;SDS011;5946;51.770;8.548;2023-08-31T00:01:39;41.37;;;26.10;;
11777;SDS011;5946;51.770;8.548;2023-08-31T00:04:05;42.70;;;25.27;;
11777;SDS011;5946;51.770;8.548;2023-08-31T00:06:42;39.47;;;25.27;;
11777;SDS011;5946;51.770;8.548;2023-08-31T00:09:10;41.27;;;24.03;;
11777;SDS011;5946;51.770;8.548;2023-08-31T00:11:36;35.30;;;24.30;;
11777;SDS011;5946;51.770;8.548;2023-08-31T00:14:02;34.13;;;22.53;;
11777;SDS011;5946;51.770;8.548;2023-08-31T00:16:28;40.73;;;23.70;;
11777;SDS011;5946;51.770;8.548;2023-08-31T00:18:55;41.30;;;24.07;;
11777;SDS011;5946;51.770;8.548;2023-08-31T00:21:22;34.60;;;22.97;;
11777;SDS011;5946;51.770;8.548;2023-08-31T00:23:48;40.87;;;23.13;;
11777;SDS011;5946;51.770;8.548;2023-08-31T00:26:14;40.90;;;23.57;;
11777;SDS011;5946;51.770;8.548;2023-08-31T00:28:40;36.03;;;24.00;;
11777;SDS011;5946;51.770;8.548;2023-08-31T00:31:08;36.03;;;23.93;;
11777;SDS011;5946;51.770;8.548;2023-08-31T00:33:34;38.43;;;23.67;;
11777;SDS011;5946;51.770;8.548;2023-08-31T00:36:00;36.83;;;24.37;;
11777;SDS011;5946;51.770;8.548;2023-08-31T00:38:28;39.27;;;24.67;;
11777;SDS011;5946;51.770;8.548;2023-08-31T00:40:54;36.97;;;24.00;;
11777;SDS011;5946;51.770;8.548;2023-08-31T00:43:20;39.00;;;24.57;;
11777;SDS011;5946;51.770;8.548;2023-08-31T00:45:46;36.77;;;25.33;;
11777;SDS011;5946;51.770;8.548;2023-08-31T00:48:15;39.73;;;25.33;;
11777;SDS011;5946;51.770;8.548;2023-08-31T00:50:44;35.33;;;24.67;;
11777;SDS011;5946;51.770;8.548;2023-08-31T00:53:11;35.37;;;24.33;;
11777;SDS011;5946;51.770;8.548;2023-08-31T00:55:37;34.80;;;24.43;;
11777;SDS011;5946;51.770;8.548;2023-08-31T00:58:06;35.10;;;24.73;;
11777;SDS011;5946;51.770;8.548;2023-08-31T01:03:18;36.57;;;24.97;;
11777;SDS011;5946;51.770;8.548;2023-08-31T01:05:52;38.03;;;23.10;;
11777;SDS011;5946;51.770;8.548;2023-08-31T01:08:33;36.73;;;25.13;;
11777;SDS011;5946;51.770;8.548;2023-08-31T01:11:06;39.23;;;25.43;;
11777;SDS011;5946;51.770;8.548;2023-08-31T01:13:33;38.73;;;25.93;;
11777;SDS011;5946;51.770;8.548;2023-08-31T01:16:00;39.20;;;25.23;;
11777;SDS011;5946;51.770;8.548;2023-08-31T01:18:29;36.73;;;24.80;;
11777;SDS011;5946;51.770;8.548;2023-08-31T01:23:27;36.97;;;25.27;;
11777;SDS011;5946;51.770;8.548;2023-08-31T01:25:54;41.60;;;26.57;;
11777;SDS011;5946;51.770;8.548;2023-08-31T01:28:20;35.17;;;25.00;;
11777;SDS011;5946;51.770;8.548;2023-08-31T01:30:46;36.73;;;24.60;;
11777;SDS011;5946;51.770;8.548;2023-08-31T01:33:12;38.47;;;24.10;;
11777;SDS011;5946;51.770;8.548;2023-08-31T01:35:40;39.80;;;24.13;;
11777;SDS011;5946;51.770;8.548;2023-08-31T01:38:08;40.77;;;23.37;;
11777;SDS011;5946;51.770;8.548;2023-08-31T01:40:38;34.40;;;22.87;;
11777;SDS011;5946;51.770;8.548;2023-08-31T01:43:06;35.20;;;23.43;;
11777;SDS011;5946;51.770;8.548;2023-08-31T01:45:32;37.23;;;24.23;;
11777;SDS011;5946;51.770;8.548;2023-08-31T01:47:59;40.20;;;23.97;;
11777;SDS011;5946;51.770;8.548;2023-08-31T01:50:25;33.53;;;23.77;;
11777;SDS011;5946;51.770;8.548;2023-08-31T01:52:51;38.73;;;24.50;;
11777;SDS011;5946;51.770;8.548;2023-08-31T01:55:18;42.17;;;24.60;;
11777;SDS011;5946;51.770;8.548;2023-08-31T01:57:44;45.50;;;24.87;;
11777;SDS011;5946;51.770;8.548;2023-08-31T02:00:10;36.27;;;25.27;;
11777;SDS011;5946;51.770;8.548;2023-08-31T02:02:36;38.13;;;24.13;;
11777;SDS011;5946;51.770;8.548;2023-08-31T02:05:02;33.93;;;23.33;;
11777;SDS011;5946;51.770;8.548;2023-08-31T02:07:29;34.93;;;24.17;;
11777;SDS011;5946;51.770;8.548;2023-08-31T02:09:55;35.73;;;23.37;;
11777;SDS011;5946;51.770;8.548;2023-08-31T02:12:21;34.30;;;22.93;;
11777;SDS011;5946;51.770;8.548;2023-08-31T02:14:47;33.33;;;23.20;;
11777;SDS011;5946;51.770;8.548;2023-08-31T02:17:13;41.40;;;24.20;;
11777;SDS011;5946;51.770;8.548;2023-08-31T02:19:39;33.33;;;23.43;;
11777;SDS011;5946;51.770;8.548;2023-08-31T02:22:06;38.73;;;24.40;;
11777;SDS011;5946;51.770;8.548;2023-08-31T02:24:35;37.47;;;23.00;;
11777;SDS011;5946;51.770;8.548;2023-08-31T02:27:01;38.40;;;23.40;;
11777;SDS011;5946;51.770;8.548;2023-08-31T02:29:27;38.03;;;23.53;;
11777;SDS011;5946;51.770;8.548;2023-08-31T02:31:53;35.23;;;22.93;;
11777;SDS011;5946;51.770;8.548;2023-08-31T02:34:19;33.53;;;22.50;;
11777;SDS011;5946;51.770;8.548;2023-08-31T02:36:45;37.27;;;23.90;;
11777;SDS011;5946;51.770;8.548;2023-08-31T02:39:11;35.97;;;23.03;;
11777;SDS011;5946;51.770;8.548;2023-08-31T02:41:38;36.97;;;22.67;;
11777;SDS011;5946;51.770;8.548;2023-08-31T02:44:04;34.80;;;22.13;;
11777;SDS011;5946;51.770;8.548;2023-08-31T02:46:30;35.10;;;22.97;;
11777;SDS011;5946;51.770;8.548;2023-08-31T02:48:56;31.30;;;22.37;;
11777;SDS011;5946;51.770;8.548;2023-08-31T02:51:22;36.13;;;22.00;;
11777;SDS011;5946;51.770;8.548;2023-08-31T02:53:48;35.20;;;20.63;;
11777;SDS011;5946;51.770;8.548;2023-08-31T02:56:15;30.80;;;19.43;;
11777;SDS011;5946;51.770;8.548;2023-08-31T02:58:41;26.73;;;17.77;;
11777;SDS011;5946;51.770;8.548;2023-08-31T03:01:10;29.90;;;18.27;;
11777;SDS011;5946;51.770;8.548;2023-08-31T03:03:37;27.10;;;16.37;;
11777;SDS011;5946;51.770;8.548;2023-08-31T03:06:03;24.10;;;15.93;;
11777;SDS011;5946;51.770;8.548;2023-08-31T03:08:29;22.33;;;14.87;;
11777;SDS011;5946;51.770;8.548;2023-08-31T03:10:56;22.53;;;15.00;;
11777;SDS011;5946;51.770;8.548;2023-08-31T03:13:24;22.47;;;14.73;;
11777;SDS011;5946;51.770;8.548;2023-08-31T03:15:50;22.30;;;15.23;;
11777;SDS011;5946;51.770;8.548;2023-08-31T03:18:15;28.87;;;15.47;;
11777;SDS011;5946;51.770;8.548;2023-08-31T03:20:41;23.63;;;15.33;;
11777;SDS011;5946;51.770;8.548;2023-08-31T03:23:07;28.43;;;16.60;;
11777;SDS011;5946;51.770;8.548;2023-08-31T03:25:35;24.43;;;16.37;;
11777;SDS011;5946;51.770;8.548;2023-08-31T03:28:00;28.27;;;17.37;;
11777;SDS011;5946;51.770;8.548;2023-08-31T03:30:27;26.20;;;17.20;;
11777;SDS011;5946;51.770;8.548;2023-08-31T03:32:53;29.77;;;17.87;;
11777;SDS011;5946;51.770;8.548;2023-08-31T03:35:19;30.40;;;18.40;;
11777;SDS011;5946;51.770;8.548;2023-08-31T03:37:49;29.20;;;18.47;;
11777;SDS011;5946;51.770;8.548;2023-08-31T03:40:15;30.03;;;18.53;;
11777;SDS011;5946;51.770;8.548;2023-08-31T03:42:41;32.43;;;18.73;;
11777;SDS011;5946;51.770;8.548;2023-08-31T03:45:07;32.67;;;21.07;;
11777;SDS011;5946;51.770;8.548;2023-08-31T03:47:33;35.00;;;20.20;;
11777;SDS011;5946;51.770;8.548;2023-08-31T03:49:59;31.47;;;20.57;;
11777;SDS011;5946;51.770;8.548;2023-08-31T03:52:25;32.20;;;19.30;;
11777;SDS011;5946;51.770;8.548;2023-08-31T03:54:51;34.73;;;21.03;;
11777;SDS011;5946;51.770;8.548;2023-08-31T03:57:17;33.00;;;19.90;;
11777;SDS011;5946;51.770;8.548;2023-08-31T03:59:43;38.97;;;20.47;;
11777;SDS011;5946;51.770;8.548;2023-08-31T04:02:09;31.27;;;20.20;;
11777;SDS011;5946;51.770;8.548;2023-08-31T04:04:35;35.63;;;21.50;;
11777;SDS011;5946;51.770;8.548;2023-08-31T04:07:01;37.03;;;20.03;;
11777;SDS011;5946;51.770;8.548;2023-08-31T04:09:27;33.93;;;21.73;;
11777;SDS011;5946;51.770;8.548;2023-08-31T04:11:55;36.83;;;22.57;;
11777;SDS011;5946;51.770;8.548;2023-08-31T04:14:21;42.10;;;22.80;;
11777;SDS011;5946;51.770;8.548;2023-08-31T04:16:47;35.33;;;21.50;;
11777;SDS011;5946;51.770;8.548;2023-08-31T04:19:15;39.53;;;23.07;;
11777;SDS011;5946;51.770;8.548;2023-08-31T04:21:41;36.70;;;21.87;;
11777;SDS011;5946;51.770;8.548;2023-08-31T04:24:08;32.47;;;21.23;;
11777;SDS011;5946;51.770;8.548;2023-08-31T04:26:34;30.07;;;21.33;;
11777;SDS011;5946;51.770;8.548;2023-08-31T04:29:00;35.70;;;22.07;;
11777;SDS011;5946;51.770;8.548;2023-08-31T04:31:26;31.67;;;20.27;;
11777;SDS011;5946;51.770;8.548;2023-08-31T04:33:52;36.10;;;21.13;;
11777;SDS011;5946;51.770;8.548;2023-08-31T04:36:19;37.03;;;21.07;;
11777;SDS011;5946;51.770;8.548;2023-08-31T04:38:46;35.20;;;19.67;;
11777;SDS011;5946;51.770;8.548;2023-08-31T04:41:12;31.93;;;18.90;;
11777;SDS011;5946;51.770;8.548;2023-08-31T04:43:38;30.43;;;18.87;;
11777;SDS011;5946;51.770;8.548;2023-08-31T04:46:04;29.87;;;18.77;;
11777;SDS011;5946;51.770;8.548;2023-08-31T04:48:30;28.07;;;19.00;;
11777;SDS011;5946;51.770;8.548;2023-08-31T04:50:56;26.63;;;17.40;;
11777;SDS011;5946;51.770;8.548;2023-08-31T04:53:22;27.67;;;18.40;;
11777;SDS011;5946;51.770;8.548;2023-08-31T04:55:48;30.70;;;18.83;;
11777;SDS011;5946;51.770;8.548;2023-08-31T04:58:14;30.00;;;18.77;;
11777;SDS011;5946;51.770;8.548;2023-08-31T05:00:40;34.70;;;18.83;;
11777;SDS011;5946;51.770;8.548;2023-08-31T05:03:06;29.23;;;18.10;;
11777;SDS011;5946;51.770;8.548;2023-08-31T05:05:32;27.00;;;18.80;;
11777;SDS011;5946;51.770;8.548;2023-08-31T05:07:58;32.60;;;20.07;;
11777;SDS011;5946;51.770;8.548;2023-08-31T05:10:24;30.40;;;20.20;;
11777;SDS011;5946;51.770;8.548;2023-08-31T05:12:50;33.60;;;19.67;;
11777;SDS011;5946;51.770;8.548;2023-08-31T05:15:16;29.33;;;20.80;;
11777;SDS011;5946;51.770;8.548;2023-08-31T05:17:42;32.10;;;22.00;;
11777;SDS011;5946;51.770;8.548;2023-08-31T05:20:08;31.53;;;22.03;;
11777;SDS011;5946;51.770;8.548;2023-08-31T05:22:35;33.23;;;20.80;;
11777;SDS011;5946;51.770;8.548;2023-08-31T05:25:01;34.47;;;22.50;;
11777;SDS011;5946;51.770;8.548;2023-08-31T05:27:27;32.53;;;22.10;;
11777;SDS011;5946;51.770;8.548;2023-08-31T05:29:53;31.37;;;22.63;;
11777;SDS011;5946;51.770;8.548;2023-08-31T05:32:19;32.10;;;21.23;;
11777;SDS011;5946;51.770;8.548;2023-08-31T05:34:45;33.93;;;22.10;;
11777;SDS011;5946;51.770;8.548;2023-08-31T05:37:11;30.67;;;20.73;;
11777;SDS011;5946;51.770;8.548;2023-08-31T05:39:37;36.43;;;21.63;;
11777;SDS011;5946;51.770;8.548;2023-08-31T05:42:03;32.37;;;21.80;;
11777;SDS011;5946;51.770;8.548;2023-08-31T05:44:29;32.27;;;20.90;;
11777;SDS011;5946;51.770;8.548;2023-08-31T05:46:55;30.60;;;20.97;;
11777;SDS011;5946;51.770;8.548;2023-08-31T05:49:21;27.30;;;21.23;;
11777;SDS011;5946;51.770;8.548;2023-08-31T05:51:46;32.03;;;21.63;;
11777;SDS011;5946;51.770;8.548;2023-08-31T05:54:12;30.40;;;21.90;;
11777;SDS011;5946;51.770;8.548;2023-08-31T05:56:38;25.70;;;21.30;;
11777;SDS011;5946;51.770;8.548;2023-08-31T05:59:05;27.30;;;20.70;;
11777;SDS011;5946;51.770;8.548;2023-08-31T06:01:31;29.93;;;21.77;;
11777;SDS011;5946;51.770;8.548;2023-08-31T06:03:57;26.60;;;20.90;;
11777;SDS011;5946;51.770;8.548;2023-08-31T06:06:23;26.27;;;20.60;;
11777;SDS011;5946;51.770;8.548;2023-08-31T06:08:49;24.73;;;19.73;;
11777;SDS011;5946;51.770;8.548;2023-08-31T06:11:15;28.57;;;20.93;;
11777;SDS011;5946;51.770;8.548;2023-08-31T06:13:41;27.70;;;18.97;;
11777;SDS011;5946;51.770;8.548;2023-08-31T06:16:08;25.40;;;19.20;;
11777;SDS011;5946;51.770;8.548;2023-08-31T06:18:34;21.50;;;16.87;;
11777;SDS011;5946;51.770;8.548;2023-08-31T06:21:00;21.97;;;17.30;;
11777;SDS011;5946;51.770;8.548;2023-08-31T06:23:26;19.00;;;15.90;;
11777;SDS011;5946;51.770;8.548;2023-08-31T06:25:52;20.60;;;15.90;;
11777;SDS011;5946;51.770;8.548;2023-08-31T06:28:17;16.23;;;14.53;;
11777;SDS011;5946;51.770;8.548;2023-08-31T06:30:43;22.00;;;15.63;;
11777;SDS011;5946;51.770;8.548;2023-08-31T06:33:11;21.57;;;16.53;;
11777;SDS011;5946;51.770;8.548;2023-08-31T06:35:37;20.90;;;16.20;;
11777;SDS011;5946;51.770;8.548;2023-08-31T06:38:03;22.10;;;15.93;;
11777;SDS011;5946;51.770;8.548;2023-08-31T06:40:29;23.57;;;17.03;;
11777;SDS011;5946;51.770;8.548;2023-08-31T06:42:55;22.13;;;16.80;;
11777;SDS011;5946;51.770;8.548;2023-08-31T06:45:21;20.63;;;17.57;;
11777;SDS011;5946;51.770;8.548;2023-08-31T06:47:47;20.97;;;17.63;;
11777;SDS011;5946;51.770;8.548;2023-08-31T06:50:14;19.17;;;17.13;;
11777;SDS011;5946;51.770;8.548;2023-08-31T06:52:40;21.00;;;17.33;;
11777;SDS011;5946;51.770;8.548;2023-08-31T06:55:06;21.17;;;17.53;;
11777;SDS011;5946;51.770;8.548;2023-08-31T06:57:32;24.43;;;17.93;;
11777;SDS011;5946;51.770;8.548;2023-08-31T06:59:58;20.53;;;17.30;;
11777;SDS011;5946;51.770;8.548;2023-08-31T07:02:27;22.03;;;17.27;;
11777;SDS011;5946;51.770;8.548;2023-08-31T07:04:53;17.83;;;15.73;;
11777;SDS011;5946;51.770;8.548;2023-08-31T07:07:19;18.93;;;16.70;;
11777;SDS011;5946;51.770;8.548;2023-08-31T07:09:46;20.30;;;14.63;;
11777;SDS011;5946;51.770;8.548;2023-08-31T07:12:13;16.97;;;13.43;;
11777;SDS011;5946;51.770;8.548;2023-08-31T07:14:39;15.40;;;13.33;;
11777;SDS011;5946;51.770;8.548;2023-08-31T07:17:05;17.63;;;12.70;;
11777;SDS011;5946;51.770;8.548;2023-08-31T07:19:31;15.07;;;12.27;;
11777;SDS011;5946;51.770;8.548;2023-08-31T07:21:57;16.53;;;12.63;;
11777;SDS011;5946;51.770;8.548;2023-08-31T07:24:24;14.13;;;12.43;;
11777;SDS011;5946;51.770;8.548;2023-08-31T07:26:50;14.83;;;12.30;;
11777;SDS011;5946;51.770;8.548;2023-08-31T07:29:16;11.90;;;10.70;;
11777;SDS011;5946;51.770;8.548;2023-08-31T07:31:42;13.70;;;10.93;;
11777;SDS011;5946;51.770;8.548;2023-08-31T07:34:08;11.23;;;10.00;;
11777;SDS011;5946;51.770;8.548;2023-08-31T07:36:34;13.40;;;9.33;;
11777;SDS011;5946;51.770;8.548;2023-08-31T07:39:00;11.10;;;9.10;;
11777;SDS011;5946;51.770;8.548;2023-08-31T07:41:26;12.83;;;8.50;;
11777;SDS011;5946;51.770;8.548;2023-08-31T07:43:52;9.97;;;8.00;;
11777;SDS011;5946;51.770;8.548;2023-08-31T07:46:18;10.50;;;8.27;;
11777;SDS011;5946;51.770;8.548;2023-08-31T07:48:45;9.33;;;7.50;;
11777;SDS011;5946;51.770;8.548;2023-08-31T07:51:13;8.00;;;6.93;;
11777;SDS011;5946;51.770;8.548;2023-08-31T07:53:39;8.53;;;7.20;;
11777;SDS011;5946;51.770;8.548;2023-08-31T07:56:05;10.93;;;7.37;;
11777;SDS011;5946;51.770;8.548;2023-08-31T07:58:31;10.17;;;7.80;;
11777;SDS011;5946;51.770;8.548;2023-08-31T08:00:57;11.10;;;7.30;;
11777;SDS011;5946;51.770;8.548;2023-08-31T08:03:23;13.13;;;7.70;;
11777;SDS011;5946;51.770;8.548;2023-08-31T08:05:50;8.83;;;7.40;;
11777;SDS011;5946;51.770;8.548;2023-08-31T08:08:16;9.67;;;8.47;;
11777;SDS011;5946;51.770;8.548;2023-08-31T08:10:42;13.40;;;10.30;;
11777;SDS011;5946;51.770;8.548;2023-08-31T08:13:08;13.50;;;9.87;;
11777;SDS011;5946;51.770;8.548;2023-08-31T08:15:34;16.20;;;11.63;;
11777;SDS011;5946;51.770;8.548;2023-08-31T08:18:00;15.33;;;11.60;;
11777;SDS011;5946;51.770;8.548;2023-08-31T08:20:27;15.63;;;11.83;;
11777;SDS011;5946;51.770;8.548;2023-08-31T08:22:53;13.87;;;11.33;;
11777;SDS011;5946;51.770;8.548;2023-08-31T08:25:20;15.13;;;11.70;;
11777;SDS011;5946;51.770;8.548;2023-08-31T08:27:47;12.80;;;10.83;;
11777;SDS011;5946;51.770;8.548;2023-08-31T08:30:13;13.03;;;10.13;;
11777;SDS011;5946;51.770;8.548;2023-08-31T08:32:40;12.23;;;10.20;;
11777;SDS011;5946;51.770;8.548;2023-08-31T08:35:06;13.83;;;10.90;;
11777;SDS011;5946;51.770;8.548;2023-08-31T08:37:32;11.90;;;10.60;;
11777;SDS011;5946;51.770;8.548;2023-08-31T08:39:58;16.03;;;10.40;;
11777;SDS011;5946;51.770;8.548;2023-08-31T08:42:24;14.33;;;10.03;;
11777;SDS011;5946;51.770;8.548;2023-08-31T08:44:51;12.23;;;9.43;;
11777;SDS011;5946;51.770;8.548;2023-08-31T08:47:17;10.63;;;8.70;;
11777;SDS011;5946;51.770;8.548;2023-08-31T08:49:43;12.77;;;7.93;;
11777;SDS011;5946;51.770;8.548;2023-08-31T08:52:09;10.07;;;7.40;;
11777;SDS011;5946;51.770;8.548;2023-08-31T08:54:36;10.77;;;7.10;;
11777;SDS011;5946;51.770;8.548;2023-08-31T08:57:03;9.37;;;7.40;;
11777;SDS011;5946;51.770;8.548;2023-08-31T08:59:30;10.93;;;6.80;;
11777;SDS011;5946;51.770;8.548;2023-08-31T09:01:56;8.13;;;7.13;;
11777;SDS011;5946;51.770;8.548;2023-08-31T09:04:22;9.70;;;6.83;;
11777;SDS011;5946;51.770;8.548;2023-08-31T09:06:50;10.73;;;7.30;;
11777;SDS011;5946;51.770;8.548;2023-08-31T09:09:16;9.20;;;7.33;;
11777;SDS011;5946;51.770;8.548;2023-08-31T09:11:42;8.90;;;6.97;;
11777;SDS011;5946;51.770;8.548;2023-08-31T09:14:17;10.37;;;7.33;;
11777;SDS011;5946;51.770;8.548;2023-08-31T09:16:47;9.77;;;7.60;;
11777;SDS011;5946;51.770;8.548;2023-08-31T09:19:20;8.80;;;7.23;;
11777;SDS011;5946;51.770;8.548;2023-08-31T09:21:47;12.43;;;8.13;;
11777;SDS011;5946;51.770;8.548;2023-08-31T09:24:13;9.10;;;7.80;;
11777;SDS011;5946;51.770;8.548;2023-08-31T09:26:39;9.90;;;8.73;;
11777;SDS011;5946;51.770;8.548;2023-08-31T09:29:06;9.33;;;8.33;;
11777;SDS011;5946;51.770;8.548;2023-08-31T09:31:32;10.43;;;8.00;;
11777;SDS011;5946;51.770;8.548;2023-08-31T09:33:58;9.57;;;8.10;;
11777;SDS011;5946;51.770;8.548;2023-08-31T09:36:24;8.80;;;7.63;;
11777;SDS011;5946;51.770;8.548;2023-08-31T09:38:56;12.00;;;7.70;;
11777;SDS011;5946;51.770;8.548;2023-08-31T09:41:22;10.17;;;7.20;;
11777;SDS011;5946;51.770;8.548;2023-08-31T09:43:48;7.50;;;6.77;;
11777;SDS011;5946;51.770;8.548;2023-08-31T09:46:14;9.13;;;6.73;;
11777;SDS011;5946;51.770;8.548;2023-08-31T09:48:40;9.00;;;6.23;;
11777;SDS011;5946;51.770;8.548;2023-08-31T09:51:07;7.83;;;5.70;;
11777;SDS011;5946;51.770;8.548;2023-08-31T09:53:35;7.27;;;4.93;;
11777;SDS011;5946;51.770;8.548;2023-08-31T09:56:02;6.97;;;4.50;;
11777;SDS011;5946;51.770;8.548;2023-08-31T09:58:30;6.60;;;4.27;;
11777;SDS011;5946;51.770;8.548;2023-08-31T10:00:56;4.47;;;3.70;;
11777;SDS011;5946;51.770;8.548;2023-08-31T10:03:23;5.37;;;3.53;;
11777;SDS011;5946;51.770;8.548;2023-08-31T10:05:49;6.47;;;3.50;;
11777;SDS011;5946;51.770;8.548;2023-08-31T10:08:15;4.57;;;3.20;;
11777;SDS011;5946;51.770;8.548;2023-08-31T10:10:42;4.70;;;3.43;;
11777;SDS011;5946;51.770;8.548;2023-08-31T10:13:08;8.87;;;3.23;;
11777;SDS011;5946;51.770;8.548;2023-08-31T10:15:34;5.70;;;3.10;;
11777;SDS011;5946;51.770;8.548;2023-08-31T10:18:01;6.27;;;3.20;;
11777;SDS011;5946;51.770;8.548;2023-08-31T10:20:28;5.10;;;3.80;;
11777;SDS011;5946;51.770;8.548;2023-08-31T10:22:56;5.60;;;3.10;;
11777;SDS011;5946;51.770;8.548;2023-08-31T10:25:23;7.70;;;3.40;;
11777;SDS011;5946;51.770;8.548;2023-08-31T10:27:49;5.47;;;3.50;;
11777;SDS011;5946;51.770;8.548;2023-08-31T10:33:33;4.93;;;2.93;;
11777;SDS011;5946;51.770;8.548;2023-08-31T10:35:40;6.43;;;3.40;;
11777;SDS011;5946;51.770;8.548;2023-08-31T10:38:16;6.73;;;3.40;;
11777;SDS011;5946;51.770;8.548;2023-08-31T10:40:45;5.97;;;2.80;;
11777;SDS011;5946;51.770;8.548;2023-08-31T10:43:25;7.20;;;3.03;;
11777;SDS011;5946;51.770;8.548;2023-08-31T10:45:50;6.07;;;3.20;;
11777;SDS011;5946;51.770;8.548;2023-08-31T10:48:17;5.97;;;3.03;;
11777;SDS011;5946;51.770;8.548;2023-08-31T10:50:43;4.17;;;2.67;;
11777;SDS011;5946;51.770;8.548;2023-08-31T10:53:12;5.33;;;2.77;;
11777;SDS011;5946;51.770;8.548;2023-08-31T10:55:50;7.33;;;2.90;;
11777;SDS011;5946;51.770;8.548;2023-08-31T10:58:17;7.57;;;2.90;;
11777;SDS011;5946;51.770;8.548;2023-08-31T11:00:52;6.30;;;2.63;;
11777;SDS011;5946;51.770;8.548;2023-08-31T11:03:21;8.83;;;2.80;;
11777;SDS011;5946;51.770;8.548;2023-08-31T11:05:51;3.47;;;2.80;;
11777;SDS011;5946;51.770;8.548;2023-08-31T11:08:21;3.77;;;2.60;;
11777;SDS011;5946;51.770;8.548;2023-08-31T11:10:47;5.77;;;2.63;;
11777;SDS011;5946;51.770;8.548;2023-08-31T11:13:18;5.40;;;2.20;;
11777;SDS011;5946;51.770;8.548;2023-08-31T11:15:45;5.90;;;2.40;;
11777;SDS011;5946;51.770;8.548;2023-08-31T11:18:11;5.37;;;2.63;;
11777;SDS011;5946;51.770;8.548;2023-08-31T11:20:40;3.90;;;2.27;;
11777;SDS011;5946;51.770;8.548;2023-08-31T11:23:06;6.93;;;2.40;;
11777;SDS011;5946;51.770;8.548;2023-08-31T11:25:32;4.23;;;2.40;;
11777;SDS011;5946;51.770;8.548;2023-08-31T11:28:02;6.10;;;2.30;;
11777;SDS011;5946;51.770;8.548;2023-08-31T11:30:32;3.13;;;2.03;;
11777;SDS011;5946;51.770;8.548;2023-08-31T11:33:07;4.90;;;2.87;;
11777;SDS011;5946;51.770;8.548;2023-08-31T11:35:37;6.70;;;3.23;;
11777;SDS011;5946;51.770;8.548;2023-08-31T11:38:04;7.77;;;3.37;;
11777;SDS011;5946;51.770;8.548;2023-08-31T11:40:31;5.33;;;3.00;;
11777;SDS011;5946;51.770;8.548;2023-08-31T11:42:58;5.20;;;3.43;;
11777;SDS011;5946;51.770;8.548;2023-08-31T11:45:28;4.80;;;3.10;;
11777;SDS011;5946;51.770;8.548;2023-08-31T11:47:54;4.87;;;2.90;;
11777;SDS011;5946;51.770;8.548;2023-08-31T11:50:21;7.47;;;2.87;;
11777;SDS011;5946;51.770;8.548;2023-08-31T11:52:47;4.93;;;3.07;;
11777;SDS011;5946;51.770;8.548;2023-08-31T11:55:14;5.73;;;2.90;;
11777;SDS011;5946;51.770;8.548;2023-08-31T11:57:47;2.80;;;2.50;;
11777;SDS011;5946;51.770;8.548;2023-08-31T12:00:15;6.27;;;2.37;;
11777;SDS011;5946;51.770;8.548;2023-08-31T12:02:42;4.13;;;1.90;;
11777;SDS011;5946;51.770;8.548;2023-08-31T12:05:08;3.57;;;1.70;;
11777;SDS011;5946;51.770;8.548;2023-08-31T12:07:39;4.43;;;2.00;;
11777;SDS011;5946;51.770;8.548;2023-08-31T12:10:08;3.00;;;1.90;;
11777;SDS011;5946;51.770;8.548;2023-08-31T12:12:35;4.93;;;1.97;;
11777;SDS011;5946;51.770;8.548;2023-08-31T12:15:02;4.30;;;2.30;;
11777;SDS011;5946;51.770;8.548;2023-08-31T12:17:31;2.20;;;1.83;;
11777;SDS011;5946;51.770;8.548;2023-08-31T12:20:03;3.87;;;1.70;;
11777;SDS011;5946;51.770;8.548;2023-08-31T12:22:30;2.60;;;1.70;;
11777;SDS011;5946;51.770;8.548;2023-08-31T12:24:56;2.47;;;1.70;;
11777;SDS011;5946;51.770;8.548;2023-08-31T12:27:22;3.43;;;1.70;;
11777;SDS011;5946;51.770;8.548;2023-08-31T12:29:47;2.60;;;1.80;;
11777;SDS011;5946;51.770;8.548;2023-08-31T12:32:15;2.93;;;1.83;;
11777;SDS011;5946;51.770;8.548;2023-08-31T12:34:43;3.47;;;2.00;;
11777;SDS011;5946;51.770;8.548;2023-08-31T12:37:09;3.00;;;2.10;;
11777;SDS011;5946;51.770;8.548;2023-08-31T12:39:34;5.60;;;2.20;;
11777;SDS011;5946;51.770;8.548;2023-08-31T12:42:02;3.63;;;2.50;;
11777;SDS011;5946;51.770;8.548;2023-08-31T12:44:28;3.60;;;2.33;;
11777;SDS011;5946;51.770;8.548;2023-08-31T12:46:54;4.47;;;2.60;;
11777;SDS011;5946;51.770;8.548;2023-08-31T12:49:20;3.60;;;2.20;;
11777;SDS011;5946;51.770;8.548;2023-08-31T12:51:46;3.07;;;2.60;;
11777;SDS011;5946;51.770;8.548;2023-08-31T12:54:13;5.53;;;2.60;;
11777;SDS011;5946;51.770;8.548;2023-08-31T12:56:40;5.13;;;2.40;;
11777;SDS011;5946;51.770;8.548;2023-08-31T12:59:06;2.70;;;2.27;;
11777;SDS011;5946;51.770;8.548;2023-08-31T13:01:32;2.77;;;2.30;;
11777;SDS011;5946;51.770;8.548;2023-08-31T13:03:58;2.87;;;2.10;;
11777;SDS011;5946;51.770;8.548;2023-08-31T13:06:24;3.80;;;2.23;;
11777;SDS011;5946;51.770;8.548;2023-08-31T13:08:51;5.37;;;2.70;;
11777;SDS011;5946;51.770;8.548;2023-08-31T13:11:17;4.33;;;2.50;;
11777;SDS011;5946;51.770;8.548;2023-08-31T13:13:48;3.88;;;2.40;;
11777;SDS011;5946;51.770;8.548;2023-08-31T13:16:16;3.50;;;2.78;;
11777;SDS011;5946;51.770;8.548;2023-08-31T13:18:41;4.10;;;2.70;;
11777;SDS011;5946;51.770;8.548;2023-08-31T13:21:07;3.25;;;2.42;;
11777;SDS011;5946;51.770;8.548;2023-08-31T13:23:33;7.25;;;2.60;;
11777;SDS011;5946;51.770;8.548;2023-08-31T13:25:59;4.03;;;2.40;;
11777;SDS011;5946;51.770;8.548;2023-08-31T13:28:25;4.10;;;2.67;;
11777;SDS011;5946;51.770;8.548;2023-08-31T13:30:57;5.30;;;2.42;;
11777;SDS011;5946;51.770;8.548;2023-08-31T13:33:25;4.85;;;2.58;;
11777;SDS011;5946;51.770;8.548;2023-08-31T13:35:53;5.53;;;2.60;;
11777;SDS011;5946;51.770;8.548;2023-08-31T13:38:19;7.13;;;2.60;;
11777;SDS011;5946;51.770;8.548;2023-08-31T13:40:45;3.05;;;2.20;;
11777;SDS011;5946;51.770;8.548;2023-08-31T13:43:11;5.65;;;2.55;;
11777;SDS011;5946;51.770;8.548;2023-08-31T13:45:37;5.28;;;2.40;;
11777;SDS011;5946;51.770;8.548;2023-08-31T13:48:03;3.97;;;2.38;;
11777;SDS011;5946;51.770;8.548;2023-08-31T13:50:29;3.73;;;2.40;;
11777;SDS011;5946;51.770;8.548;2023-08-31T13:52:55;4.70;;;2.57;;
11777;SDS011;5946;51.770;8.548;2023-08-31T13:55:22;4.90;;;2.37;;
11777;SDS011;5946;51.770;8.548;2023-08-31T13:57:48;6.00;;;2.60;;
11777;SDS011;5946;51.770;8.548;2023-08-31T14:00:14;6.40;;;4.00;;
11777;SDS011;5946;51.770;8.548;2023-08-31T14:02:42;6.20;;;3.53;;
11777;SDS011;5946;51.770;8.548;2023-08-31T14:05:08;5.07;;;3.07;;
11777;SDS011;5946;51.770;8.548;2023-08-31T14:07:38;7.80;;;3.20;;
11777;SDS011;5946;51.770;8.548;2023-08-31T14:10:04;4.40;;;2.77;;
11777;SDS011;5946;51.770;8.548;2023-08-31T14:12:31;3.50;;;3.17;;
11777;SDS011;5946;51.770;8.548;2023-08-31T14:14:57;5.77;;;2.10;;
11777;SDS011;5946;51.770;8.548;2023-08-31T14:17:23;5.57;;;2.60;;
11777;SDS011;5946;51.770;8.548;2023-08-31T14:19:49;4.40;;;2.37;;
11777;SDS011;5946;51.770;8.548;2023-08-31T15:01:12;12.07;;;8.83;;
11777;SDS011;5946;51.770;8.548;2023-08-31T15:03:38;19.93;;;13.27;;
11777;SDS011;5946;51.770;8.548;2023-08-31T15:06:04;24.63;;;15.73;;
11777;SDS011;5946;51.770;8.548;2023-08-31T15:08:39;16.50;;;12.10;;
11777;SDS011;5946;51.770;8.548;2023-08-31T15:11:10;11.17;;;8.83;;
11777;SDS011;5946;51.770;8.548;2023-08-31T15:13:36;7.60;;;6.90;;
11777;SDS011;5946;51.770;8.548;2023-08-31T15:16:02;9.57;;;8.77;;
11777;SDS011;5946;51.770;8.548;2023-08-31T15:18:28;7.87;;;7.17;;
11777;SDS011;5946;51.770;8.548;2023-08-31T15:20:54;7.93;;;6.83;;
11777;SDS011;5946;51.770;8.548;2023-08-31T15:23:20;6.80;;;6.07;;
11777;SDS011;5946;51.770;8.548;2023-08-31T15:25:46;6.77;;;6.17;;
11777;SDS011;5946;51.770;8.548;2023-08-31T15:28:12;7.13;;;6.43;;
11777;SDS011;5946;51.770;8.548;2023-08-31T15:30:38;6.60;;;6.00;;